TAF KMFD
AMD KMFD 280919Z 2809/2906 28008KT P6SM OVC003 FM281500 27010KT P6SM OVC015 FM282000 27012G20KT 4SM -SHSN SCT008 OVC015 FM290400 29012KT P6SM BKN025=
METAR KMFD
WC KMFD
WS KMFD
WV KMFD